Time;durP1;ratioP1;P1;durP2;ratioP2;P2;SDS_P1;SDS_P2;PMS_P1;PMS_P2;Temp;Humidity;BMP_temperature;BMP_pressure;BME280_temperature;BME280_humidity;BME280_pressure;Samples;Min_cycle;Max_cycle;Signal;HPM_P1;HPM_P2
2021/12/13 00:00:32;;;;;;;19.88;9.45;;;;;;;-0.34;78.94;99617.88;5053926;28;20037;-95
2021/12/13 00:03:10;;;;;;;16.65;8.98;;;;;;;-0.42;78.60;99602.81;5054007;28;20049;-95
2021/12/13 00:05:42;;;;;;;;;;;;;;;-0.25;78.57;99631.19;5054083;28;20045;-95
2021/12/13 00:08:12;;;;;;;20.15;9.68;;;;;;;-0.46;78.94;99593.09;5053701;28;20382;-95
2021/12/13 00:10:46;;;;;;;18.13;8.88;;;;;;;-0.45;78.72;99594.03;5052940;28;20075;-96
2021/12/13 00:13:15;;;;;;;17.75;9.18;;;;;;;-0.33;79.11;99633.56;5052694;28;20049;-95
2021/12/13 00:15:50;;;;;;;15.85;9.10;;;;;;;-0.58;80.10;99616.28;5052643;28;20076;-95
2021/12/13 00:18:26;;;;;;;24.83;12.27;;;;;;;-0.70;82.38;99608.91;5052888;28;20098;-95
2021/12/13 00:20:59;;;;;;;22.27;11.43;;;;;;;-0.58;82.81;99637.16;5052041;28;20037;-95
2021/12/13 00:23:29;;;;;;;25.23;11.15;;;;;;;-0.88;83.67;99593.56;5052862;28;20042;-96
2021/12/13 00:26:00;;;;;;;26.85;12.27;;;;;;;-0.96;83.73;99589.81;5053871;28;20442;-95
2021/12/13 00:28:32;;;;;;;29.65;13.52;;;;;;;-1.00;84.53;99605.34;5053465;28;20091;-96
2021/12/13 00:31:12;;;;;;;27.80;13.02;;;;;;;-1.03;85.02;99611.34;5052201;28;20136;-95
2021/12/13 00:33:53;;;;;;;21.85;11.18;;;;;;;-0.91;85.52;99618.69;5052991;28;20426;-95
2021/12/13 00:36:29;;;;;;;24.25;11.90;;;;;;;-1.01;84.37;99604.47;5053637;28;20041;-95
2021/12/13 00:39:12;;;;;;;30.00;13.50;;;;;;;-1.06;84.02;99593.88;5053581;28;20403;-94
2021/12/13 00:41:43;;;;;;;28.35;14.23;;;;;;;-0.88;84.26;99642.31;5049571;28;20168;-95
2021/12/13 00:44:16;;;;;;;34.25;16.30;;;;;;;-0.93;84.98;99631.72;5040687;28;20103;-95
2021/12/13 00:46:45;;;;;;;33.17;16.90;;;;;;;-1.14;85.33;99607.50;5040602;28;20053;-95
2021/12/13 00:49:20;;;;;;;34.00;16.80;;;;;;;-1.00;85.32;99641.88;5040240;28;20049;-95
2021/12/13 00:51:49;;;;;;;38.55;18.50;;;;;;;-1.15;85.68;99606.63;5039986;28;20042;-96
2021/12/13 00:54:19;;;;;;;42.75;20.05;;;;;;;-1.05;86.37;99618.25;5039769;28;20080;-96
2021/12/13 00:57:04;;;;;;;36.00;18.05;;;;;;;-1.09;85.89;99632.91;5039968;28;20056;-95
2021/12/13 00:59:33;;;;;;;36.55;18.77;;;;;;;-1.10;85.96;99635.50;5039460;28;20057;-95
2021/12/13 01:02:03;;;;;;;38.05;19.20;;;;;;;-1.27;87.35;99594.03;5038795;28;20111;-95
2021/12/13 01:04:48;;;;;;;43.53;22.30;;;;;;;-1.27;87.66;99596.66;5039360;28;20128;-95
2021/12/13 01:07:59;;;;;;;38.65;21.10;;;;;;;-1.19;86.78;99603.84;5040183;28;20059;-94
2021/12/13 01:11:09;;;;;;;42.45;20.58;;;;;;;-1.27;87.26;99608.81;5039440;28;20115;-95
2021/12/13 01:13:45;;;;;;;39.67;19.48;;;;;;;-1.27;87.58;99596.66;5039220;28;20433;-96
2021/12/13 01:28:31;;;;;;;39.88;20.52;;;;;;;-1.34;88.61;99630.31;5107589;27;20375;-95
2021/12/13 01:31:01;;;;;;;27.13;15.02;;;;;;;-1.34;88.41;99632.94;5054147;28;20450;-95
2021/12/13 01:33:29;;;;;;;30.75;16.23;;;;;;;-1.23;87.74;99641.13;5053557;28;20372;-95
2021/12/13 01:36:00;;;;;;;31.05;16.88;;;;;;;-1.23;88.05;99643.75;5054392;28;20047;-96
2021/12/13 01:41:35;;;;;;;31.67;14.23;;;;;;;-1.15;89.09;99665.75;5110289;27;20370;-95
2021/12/13 01:44:06;;;;;;;33.17;16.50;;;;;;;-1.33;88.87;99647.75;5094458;28;20053;-94
2021/12/13 01:46:36;;;;;;;28.05;15.25;;;;;;;-1.24;88.74;99671.53;5094699;28;20131;-95
2021/12/13 01:49:04;;;;;;;31.67;14.55;;;;;;;-1.18;87.00;99660.44;5094404;28;20524;-96
2021/12/13 01:51:34;;;;;;;30.70;14.77;;;;;;;-1.21;87.01;99653.41;5093940;28;20397;-95
2021/12/13 01:54:04;;;;;;;38.80;17.77;;;;;;;-1.25;88.51;99654.13;5093473;28;20516;-94
2021/12/13 02:02:52;;;;;;;32.30;16.45;;;;;;;-1.48;89.08;99632.44;5155984;27;20941;-95
2021/12/13 02:05:21;;;;;;;51.40;16.75;;;;;;;-1.52;88.79;99631.47;5155266;27;20037;-94
2021/12/13 02:07:54;;;;;;;32.13;16.25;;;;;;;-1.35;88.98;99654.63;5155139;27;20054;-95
2021/12/13 02:10:27;;;;;;;35.10;18.27;;;;;;;-1.58;90.08;99620.81;5155621;27;20046;-96
2021/12/13 02:12:58;;;;;;;36.90;18.73;;;;;;;-1.59;90.33;99634.69;5155737;27;20043;-96
2021/12/13 02:18:44;;;;;;;34.30;15.93;;;;;;;-1.72;90.79;99614.22;5134736;27;20390;-96
2021/12/13 02:21:18;;;;;;;32.92;15.55;;;;;;;-1.68;90.48;99616.09;5134791;28;20047;-95
2021/12/13 02:23:48;;;;;;;35.42;17.77;;;;;;;-1.71;90.61;99611.69;5136025;28;20055;-95
2021/12/13 02:26:18;;;;;;;30.15;15.00;;;;;;;-1.53;90.84;99647.06;5135561;28;20055;-95
2021/12/13 02:28:53;;;;;;;30.52;15.27;;;;;;;-1.68;90.44;99634.34;5136249;28;20047;-95
2021/12/13 02:31:31;;;;;;;37.30;16.92;;;;;;;-1.37;88.27;99644.13;5136091;28;20439;-94
2021/12/13 02:33:59;;;;;;;35.92;15.80;;;;;;;-1.33;87.58;99632.97;5136124;28;20071;-95
2021/12/13 02:36:29;;;;;;;42.17;16.65;;;;;;;-1.33;87.26;99632.09;5134151;28;20393;-96
2021/12/13 02:39:00;;;;;;;35.10;16.98;;;;;;;-1.14;86.51;99644.06;5135934;28;20047;-94
2021/12/13 02:41:32;;;;;;;32.25;16.13;;;;;;;-1.13;85.40;99614.47;5138958;28;20051;-95
2021/12/13 02:44:09;;;;;;;28.73;14.25;;;;;;;-1.06;84.76;99621.72;5138042;28;20052;-95
2021/12/13 02:46:37;;;;;;;31.35;14.98;;;;;;;-1.07;85.01;99601.63;5138387;28;20043;-95
2021/12/13 02:49:07;;;;;;;28.73;14.48;;;;;;;-1.06;84.63;99583.44;5136054;28;20043;-96
2021/12/13 02:51:38;;;;;;;38.90;17.48;;;;;;;-1.15;85.99;99613.53;5134504;28;20044;-95
2021/12/13 02:54:09;;;;;;;33.55;16.25;;;;;;;-1.47;87.53;99601.19;5135177;28;20568;-94
2021/12/13 02:56:41;;;;;;;28.35;13.55;;;;;;;-1.28;86.86;99630.50;5136380;28;20046;-94
2021/12/13 02:59:09;;;;;;;32.78;15.45;;;;;;;-1.52;86.80;99618.44;5136760;28;20134;-95
2021/12/13 03:01:44;;;;;;;28.17;13.85;;;;;;;-1.52;87.10;99612.31;5136729;28;20434;-94
2021/12/13 03:04:13;;;;;;;28.60;13.93;;;;;;;-1.48;86.93;99627.22;5134611;28;20142;-96
2021/12/13 03:06:44;;;;;;;33.33;12.68;;;;;;;-1.37;87.20;99654.56;5134720;28;20055;-94
2021/12/13 03:09:19;;;;;;;30.42;13.95;;;;;;;-1.52;86.91;99634.06;5135902;28;20044;-95
2021/12/13 03:11:47;;;;;;;28.58;14.15;;;;;;;-1.68;88.04;99623.94;5135025;28;20103;-95
2021/12/13 03:14:19;;;;;;;24.30;12.98;;;;;;;-1.68;88.35;99621.31;5135026;28;20067;-95
2021/12/13 03:16:50;;;;;;;23.38;12.63;;;;;;;-1.75;88.61;99629.75;5113826;28;20059;-95
2021/12/13 03:19:30;;;;;;;28.17;12.90;;;;;;;-1.83;89.11;99628.59;5115649;28;20047;-95
2021/12/13 03:22:15;;;;;;;27.50;12.80;;;;;;;-1.91;90.07;99623.09;5115040;28;20090;-95
2021/12/13 03:25:08;;;;;;;24.05;12.02;;;;;;;-1.83;90.65;99636.41;5115625;28;20173;-96
2021/12/13 03:28:05;;;;;;;27.83;13.77;;;;;;;-1.90;90.00;99625.75;5107149;28;20063;-94
2021/12/13 03:30:39;;;;;;;30.27;12.85;;;;;;;-1.96;90.15;99625.53;5101240;28;20082;-96
2021/12/13 03:33:09;;;;;;;24.63;12.05;;;;;;;-2.02;90.33;99614.88;5100990;28;20047;-93
2021/12/13 03:35:49;;;;;;;24.48;11.00;;;;;;;-1.87;90.80;99645.84;5101471;28;20051;-96
2021/12/13 03:38:18;;;;;;;26.75;12.30;;;;;;;-2.01;91.27;99623.59;5101141;28;20040;-95
2021/12/13 03:40:46;;;;;;;;;;;;;;;-1.78;90.62;99660.94;5102118;28;20059;-95
2021/12/13 03:43:17;;;;;;;28.10;13.60;;;;;;;-2.01;90.67;99623.59;5100443;28;19920;-95
2021/12/13 03:45:46;;;;;;;28.08;13.60;;;;;;;-1.93;90.68;99637.78;5100675;28;20067;-94
2021/12/13 03:48:15;;;;;;;26.02;12.60;;;;;;;-2.01;89.93;99634.03;5100652;28;20398;-94
2021/12/13 03:50:44;;;;;;;22.67;12.43;;;;;;;-2.05;91.06;99635.63;5100334;28;20094;-93
2021/12/13 03:53:14;;;;;;;27.75;11.80;;;;;;;-1.91;89.80;99625.69;5102116;28;20047;-95
2021/12/13 03:55:43;;;;;;;30.52;14.30;;;;;;;-1.59;87.91;99642.50;5104548;28;20048;-94
2021/12/13 03:58:14;;;;;;;25.70;13.13;;;;;;;-1.41;87.07;99657.03;5101878;28;20053;-94
2021/12/13 04:00:46;;;;;;;25.02;12.85;;;;;;;-1.43;87.97;99663.91;5099684;28;20052;-95
2021/12/13 04:03:16;;;;;;;28.33;13.57;;;;;;;-1.67;88.19;99630.91;5099494;28;20075;-95
2021/12/13 04:05:42;;;;;;;28.30;13.45;;;;;;;-1.76;88.75;99634.06;5100779;28;20097;-95
2021/12/13 04:08:14;;;;;;;23.58;13.52;;;;;;;-1.74;89.11;99634.13;5100845;28;20040;-95
2021/12/13 04:10:46;;;;;;;26.02;13.00;;;;;;;-1.88;90.04;99625.81;5100915;28;20044;-95
2021/12/13 04:13:17;;;;;;;28.20;12.82;;;;;;;-1.96;90.20;99625.53;5099964;28;20072;-95
2021/12/13 04:15:58;;;;;;;28.52;13.90;;;;;;;-2.12;91.24;99629.31;5100200;28;20044;-94
2021/12/13 04:19:06;;;;;;;32.05;13.25;;;;;;;-1.97;90.93;99648.97;5099359;28;20111;-96
2021/12/13 04:21:25;;;;;;;25.85;13.00;;;;;;;-1.99;90.38;99646.28;5085028;28;20051;-95
2021/12/13 04:23:56;;;;;;;27.58;14.38;;;;;;;-2.10;91.06;99634.59;5100763;28;20056;-95
2021/12/13 04:26:25;;;;;;;25.02;12.60;;;;;;;-2.05;91.70;99646.06;5101440;28;20083;-95
2021/12/13 04:28:58;;;;;;;29.45;13.82;;;;;;;-2.05;90.58;99655.59;5100273;28;20067;-96
2021/12/13 04:31:31;;;;;;;22.02;11.63;;;;;;;-1.94;91.05;99676.00;5101034;28;20048;-94
2021/12/13 04:34:02;;;;;;;25.60;12.20;;;;;;;-2.08;90.53;99652.03;5100955;28;20048;-95
2021/12/13 04:36:32;;;;;;;28.60;12.80;;;;;;;-2.09;91.33;99646.75;5101168;28;20067;-95
2021/12/13 04:39:05;;;;;;;28.35;11.35;;;;;;;-2.03;92.03;99641.78;5101962;28;20044;-96
2021/12/13 04:41:38;;;;;;;24.55;12.38;;;;;;;-2.07;91.56;99643.38;5100155;28;20042;-95
2021/12/13 04:44:09;;;;;;;28.92;12.60;;;;;;;-1.86;91.89;99673.69;5101807;28;20588;-95
2021/12/13 04:46:38;;;;;;;25.58;11.80;;;;;;;-2.03;91.37;99639.19;5102938;28;20040;-96
2021/12/13 04:49:14;;;;;;;29.83;15.13;;;;;;;-1.95;91.82;99649.88;5099123;28;20032;-95
2021/12/13 04:51:55;;;;;;;32.22;15.65;;;;;;;-1.98;92.33;99655.88;5099475;28;20070;-95
2021/12/13 04:54:23;;;;;;;30.77;14.40;;;;;;;-1.91;91.55;99665.72;5102075;28;20067;-94
2021/12/13 04:56:54;;;;;;;35.42;16.55;;;;;;;-1.99;91.95;99648.88;5099609;28;20520;-95
2021/12/13 04:59:24;;;;;;;32.70;14.95;;;;;;;-1.73;92.74;99691.56;5101562;28;20117;-95
2021/12/13 05:01:53;;;;;;;;;;;;;;;-1.69;92.31;99692.56;5100597;28;20066;-95
2021/12/13 05:04:24;;;;;;;34.42;15.18;;;;;;;-1.95;91.51;99658.59;5099477;28;19920;-94
2021/12/13 05:06:52;;;;;;;37.08;16.33;;;;;;;-1.87;91.66;99691.03;5100415;28;20071;-94
2021/12/13 05:09:21;;;;;;;27.87;14.77;;;;;;;-1.93;91.36;99663.84;5100008;28;20073;-96
2021/12/13 05:11:51;;;;;;;29.98;14.68;;;;;;;-1.87;90.69;99653.66;5099731;28;20067;-96
2021/12/13 05:14:30;;;;;;;32.55;14.40;;;;;;;-1.77;90.39;99663.59;5100048;28;20120;-95
2021/12/13 05:17:06;;;;;;;32.95;15.15;;;;;;;-1.74;90.43;99660.22;5099763;28;20044;-95
2021/12/13 05:19:35;;;;;;;31.73;15.27;;;;;;;-1.53;90.62;99696.63;5099408;28;20131;-95
2021/12/13 05:22:05;;;;;;;38.22;16.10;;;;;;;-1.74;91.39;99675.84;5097911;28;20139;-94
2021/12/13 05:24:35;;;;;;;33.15;16.10;;;;;;;-1.70;91.10;99680.34;5097500;28;20567;-94
2021/12/13 05:27:04;;;;;;;35.60;15.70;;;;;;;-1.49;88.00;99688.94;5102874;28;20517;-95
2021/12/13 05:29:34;;;;;;;31.58;14.02;;;;;;;-1.42;86.43;99665.69;5103929;28;20064;-95
2021/12/13 05:32:07;;;;;;;30.10;14.77;;;;;;;-1.31;85.62;99659.13;5102311;28;20048;-95
2021/12/13 05:34:38;;;;;;;28.85;14.68;;;;;;;-1.31;85.76;99633.91;5102805;28;20040;-95
2021/12/13 05:37:06;;;;;;;29.67;14.55;;;;;;;-1.32;86.11;99641.72;5100445;28;20061;-96
2021/12/13 05:39:33;;;;;;;36.15;18.75;;;;;;;-1.34;88.14;99645.97;5100789;28;20047;-94
2021/12/13 05:42:03;;;;;;;42.53;18.25;;;;;;;-1.27;88.75;99661.88;5102627;28;20509;-95
2021/12/13 05:44:33;;;;;;;41.03;17.27;;;;;;;-1.17;89.53;99667.41;5103303;28;20039;-94
2021/12/13 05:47:03;;;;;;;46.22;18.98;;;;;;;-1.24;88.84;99645.44;5103374;28;20047;-96
2021/12/13 05:49:32;;;;;;;57.42;22.10;;;;;;;-1.17;88.99;99657.88;5101641;28;20048;-95
2021/12/13 05:52:08;;;;;;;63.78;24.25;;;;;;;-1.01;88.79;99689.72;5100853;28;20044;-96
2021/12/13 05:54:39;;;;;;;65.47;26.02;;;;;;;-1.13;87.80;99669.28;5101003;28;20055;-95
2021/12/13 05:57:10;;;;;;;44.05;17.77;;;;;;;-1.08;86.75;99673.84;5100299;28;20062;-94
2021/12/13 05:59:55;;;;;;;28.10;13.05;;;;;;;-0.76;82.30;99658.38;5103555;28;20051;-94
2021/12/13 06:02:57;;;;;;;40.40;16.65;;;;;;;-0.64;83.89;99682.25;5100929;28;20040;-95
2021/12/13 06:05:29;;;;;;;41.40;17.55;;;;;;;-0.46;85.03;99712.41;5099929;28;20051;-95
2021/12/13 06:08:01;;;;;;;40.50;17.85;;;;;;;-0.59;85.33;99689.34;5099230;28;20040;-96
2021/12/13 06:10:38;;;;;;;34.78;17.15;;;;;;;-0.72;85.39;99665.44;5101770;28;20043;-96
2021/12/13 06:13:08;;;;;;;33.70;17.02;;;;;;;-0.64;85.48;99687.47;5101265;28;20139;-96
2021/12/13 06:15:38;;;;;;;26.92;13.13;;;;;;;-0.54;82.96;99674.72;5100776;28;20205;-94
2021/12/13 06:18:16;;;;;;;23.10;10.57;;;;;;;-0.55;80.30;99659.88;5099874;28;20048;-95
2021/12/13 06:20:45;;;;;;;21.58;10.52;;;;;;;-0.55;80.64;99654.66;5099210;28;20044;-95
2021/12/13 06:23:15;;;;;;;22.15;10.43;;;;;;;-0.47;81.17;99663.63;5098563;28;20083;-96
2021/12/13 06:25:44;;;;;;;30.58;15.55;;;;;;;-0.40;83.36;99672.53;5098328;28;20050;-95
2021/12/13 06:28:20;;;;;;;35.38;17.92;;;;;;;-0.31;84.92;99691.13;5097040;28;20032;-94
2021/12/13 06:30:54;;;;;;;30.80;16.52;;;;;;;-0.51;84.57;99674.81;5103766;28;20082;-96
2021/12/13 06:33:22;;;;;;;25.48;11.98;;;;;;;-0.33;81.74;99698.91;5102197;28;20051;-95
2021/12/13 06:35:51;;;;;;;25.63;11.45;;;;;;;-0.35;80.10;99673.56;5100828;28;20047;-96
2021/12/13 06:38:45;;;;;;;20.23;10.82;;;;;;;-0.32;78.75;99677.16;5102938;28;20048;-94
2021/12/13 06:41:18;;;;;;;19.13;10.68;;;;;;;-0.23;77.83;99679.19;5101804;28;20401;-92
2021/12/13 06:43:51;;;;;;;19.50;9.32;;;;;;;0.02;75.87;99686.03;5100957;28;20097;-95
2021/12/13 06:46:39;;;;;;;17.17;8.95;;;;;;;0.08;75.99;99678.38;5100442;28;20505;-94
2021/12/13 06:49:15;;;;;;;33.95;16.00;;;;;;;0.22;78.08;99680.50;5104636;28;20083;-96
2021/12/13 06:51:46;;;;;;;38.95;18.42;;;;;;;0.18;80.38;99685.66;5099811;28;20043;-95
2021/12/13 06:54:16;;;;;;;39.33;17.80;;;;;;;0.09;81.75;99677.53;5099379;28;20044;-96
2021/12/13 06:56:44;;;;;;;42.92;20.67;;;;;;;0.06;82.72;99673.94;5100793;28;20074;-96
2021/12/13 06:59:16;;;;;;;37.72;18.25;;;;;;;0.07;82.63;99681.84;5099375;28;20044;-95
2021/12/13 07:01:56;;;;;;;35.97;18.45;;;;;;;0.02;82.34;99675.56;5099875;28;20497;-96
2021/12/13 07:04:35;;;;;;;36.85;16.33;;;;;;;0.11;82.98;99695.88;5103118;28;20044;-96
2021/12/13 07:07:09;;;;;;;42.90;19.30;;;;;;;0.01;82.85;99681.66;5103225;28;20113;-95
2021/12/13 07:09:37;;;;;;;40.42;18.48;;;;;;;-0.01;83.52;99676.38;5103102;28;20431;-95
2021/12/13 07:12:13;;;;;;;41.50;22.23;;;;;;;0.31;83.56;99715.66;5103602;28;20123;-96
2021/12/13 07:14:39;;;;;;;56.65;24.50;;;;;;;0.07;83.84;99678.34;5102198;28;20393;-96
2021/12/13 07:17:14;;;;;;;49.42;23.33;;;;;;;0.12;84.46;99676.72;5101048;28;20124;-95
2021/12/13 07:19:43;;;;;;;49.63;24.55;;;;;;;0.33;83.84;99698.28;5101854;28;20130;-94
2021/12/13 07:22:16;;;;;;;55.92;24.23;;;;;;;0.22;83.72;99688.34;5102893;28;20040;-95
2021/12/13 07:24:46;;;;;;;49.95;24.48;;;;;;;0.38;83.61;99694.06;5108611;28;20074;-96
2021/12/13 07:27:14;;;;;;;52.35;23.27;;;;;;;0.43;83.31;99704.66;5108985;28;20083;-95
2021/12/13 07:29:46;;;;;;;50.33;22.53;;;;;;;0.44;82.94;99692.47;5109861;28;20044;-96
2021/12/13 07:32:24;;;;;;;44.85;22.58;;;;;;;0.55;82.58;99714.59;5108865;28;20048;-96
2021/12/13 07:34:58;;;;;;;41.13;21.73;;;;;;;0.60;82.08;99708.63;5108227;28;20047;-96
2021/12/13 07:37:37;;;;;;;45.85;21.33;;;;;;;0.79;81.78;99711.75;5109204;28;20054;-96
2021/12/13 07:40:18;;;;;;;;;;;;;;;1.23;81.51;99756.59;5108860;28;20405;-95
2021/12/13 07:42:54;;;;;;;47.17;19.23;;;;;;;1.05;80.27;99727.28;5110183;28;19950;-96
2021/12/13 07:45:28;;;;;;;37.47;19.73;;;;;;;1.07;79.72;99720.38;5109950;28;20375;-96
2021/12/13 07:47:57;;;;;;;41.65;19.23;;;;;;;1.28;79.19;99726.16;5107561;28;20052;-96
2021/12/13 07:50:24;;;;;;;43.90;21.42;;;;;;;1.31;79.40;99718.38;5107879;28;20052;-96
2021/12/13 07:52:56;;;;;;;48.20;22.80;;;;;;;1.40;78.60;99729.06;5101053;28;20044;-96
2021/12/13 07:55:27;;;;;;;50.95;24.00;;;;;;;1.49;78.67;99727.53;5102210;28;20123;-95
2021/12/13 07:57:57;;;;;;;47.05;23.80;;;;;;;1.48;78.02;99723.16;5100457;28;20043;-96
2021/12/13 08:00:30;;;;;;;53.13;24.42;;;;;;;1.44;78.07;99717.81;5099488;28;20089;-95
2021/12/13 08:03:00;;;;;;;57.60;28.25;;;;;;;1.21;78.46;99711.13;5100288;28;20048;-95
2021/12/13 08:05:29;;;;;;;53.63;25.15;;;;;;;1.32;79.65;99712.25;5100690;28;20135;-95
2021/12/13 08:07:59;;;;;;;52.75;23.92;;;;;;;1.52;77.41;99699.69;5101527;28;20048;-95
2021/12/13 08:10:28;;;;;;;;;;;;;;;2.29;77.50;99750.38;5103952;28;20097;-95
2021/12/13 08:12:57;;;;;;;48.58;25.10;;;;;;;2.41;76.43;99712.16;5101658;28;20003;-96
2021/12/13 08:15:34;;;;;;;56.10;27.77;;;;;;;2.77;75.08;99711.09;5099586;28;20520;-96
2021/12/13 08:18:07;;;;;;;56.35;27.02;;;;;;;3.00;72.94;99708.03;5101505;28;20083;-95
2021/12/13 08:20:37;;;;;;;65.03;28.27;;;;;;;3.24;71.12;99713.72;5102204;28;20044;-95
2021/12/13 08:23:04;;;;;;;49.13;23.15;;;;;;;3.58;70.15;99729.19;5099485;28;20040;-96
2021/12/13 08:25:35;;;;;;;48.42;22.67;;;;;;;3.78;67.87;99743.56;5099083;28;20055;-96
2021/12/13 08:28:04;;;;;;;56.80;25.02;;;;;;;3.86;66.83;99715.63;5100019;28;20068;-96
2021/12/13 08:30:32;;;;;;;;;;;;;;;4.31;67.04;99748.72;5101581;28;20040;-95
2021/12/13 08:33:07;;;;;;;78.20;34.97;;;;;;;4.34;65.84;99724.19;5101385;28;19920;-95
2021/12/13 08:36:01;;;;;;;46.28;21.98;;;;;;;4.24;65.67;99707.38;5099988;28;20485;-95
2021/12/13 08:38:38;;;;;;;43.88;22.50;;;;;;;4.18;65.59;99701.16;5107388;28;20032;-96
2021/12/13 08:41:17;;;;;;;120.90;43.28;;;;;;;4.56;66.09;99735.88;5098977;28;20176;-96
2021/12/13 08:43:48;;;;;;;54.33;26.02;;;;;;;4.22;64.57;99695.06;5100592;28;20044;-96
2021/12/13 08:46:30;;;;;;;125.30;45.33;;;;;;;4.01;65.55;99720.25;5098095;28;20048;-96
2021/12/13 08:48:59;;;;;;;57.90;30.65;;;;;;;3.86;65.78;99710.38;5098450;28;20529;-95
2021/12/13 08:51:29;;;;;;;116.13;56.03;;;;;;;3.78;65.74;99706.72;5098964;28;20138;-96
2021/12/13 08:54:03;;;;;;;90.18;45.40;;;;;;;3.73;65.87;99716.31;5098918;28;20044;-96
2021/12/13 08:56:33;;;;;;;49.22;24.17;;;;;;;3.60;65.57;99690.63;5098689;28;20044;-96
2021/12/13 08:59:09;;;;;;;35.67;18.40;;;;;;;3.56;64.30;99702.00;5099079;28;20086;-96
2021/12/13 09:01:40;;;;;;;25.58;12.32;;;;;;;3.74;64.28;99736.47;5100290;28;20082;-96
2021/12/13 09:04:09;;;;;;;25.25;11.55;;;;;;;3.33;65.92;99709.50;5100268;28;20040;-95
2021/12/13 09:06:36;;;;;;;21.92;12.88;;;;;;;3.25;66.42;99696.22;5100189;28;20044;-96
2021/12/13 09:09:11;;;;;;;34.13;14.35;;;;;;;3.18;67.06;99705.72;5102920;28;20103;-94
2021/12/13 09:11:47;;;;;;;26.92;14.68;;;;;;;3.29;66.85;99717.31;5102484;28;20040;-95
2021/12/13 09:14:19;;;;;;;29.77;14.57;;;;;;;3.44;66.32;99714.06;5101984;28;20093;-94
2021/12/13 09:16:55;;;;;;;27.83;14.55;;;;;;;3.34;65.53;99708.63;5100534;28;20079;-95
2021/12/13 09:19:28;;;;;;;25.80;13.88;;;;;;;3.20;67.14;99690.00;5102964;28;20055;-94
2021/12/13 09:22:01;;;;;;;32.22;15.32;;;;;;;3.27;67.34;99697.13;5101467;28;20048;-95
2021/12/13 09:24:38;;;;;;;30.15;14.93;;;;;;;3.48;66.54;99709.75;5101315;28;20044;-95
2021/12/13 09:30:39;;;;;;;31.77;15.35;;;;;;;3.65;66.28;99702.16;5136554;27;20480;-94
2021/12/13 09:33:12;;;;;;;29.83;14.98;;;;;;;3.65;65.29;99683.72;5137953;28;20051;-94
2021/12/13 09:35:43;;;;;;;28.80;14.80;;;;;;;3.72;65.13;99677.69;5137596;28;20054;-94
2021/12/13 09:38:34;;;;;;;23.27;13.57;;;;;;;3.97;64.39;99694.75;5135568;28;20126;-96
2021/12/13 09:41:10;;;;;;;41.50;19.13;;;;;;;4.17;64.99;99681.84;5134726;28;20039;-94
2021/12/13 09:43:40;;;;;;;32.47;16.50;;;;;;;4.28;64.60;99664.44;5134531;28;20493;-96
2021/12/13 09:46:10;;;;;;;40.75;22.15;;;;;;;4.56;65.67;99677.06;5135275;28;20096;-95
2021/12/13 09:48:42;;;;;;;37.67;20.27;;;;;;;4.56;65.15;99683.22;5134417;28;20400;-96
2021/12/13 09:51:13;;;;;;;38.72;20.23;;;;;;;4.69;64.59;99697.41;5133810;28;20039;-96
2021/12/13 09:53:44;;;;;;;38.75;20.20;;;;;;;4.82;64.61;99703.72;5133959;28;20043;-95
2021/12/13 09:56:13;;;;;;;42.13;20.77;;;;;;;4.65;64.52;99678.03;5134711;28;20040;-95
2021/12/13 09:58:41;;;;;;;;;;;;;;;5.07;60.98;99712.75;5136202;28;20095;-95
2021/12/13 10:01:16;;;;;;;25.10;13.30;;;;;;;5.06;60.59;99658.25;5137236;28;19919;-96
2021/12/13 10:03:47;;;;;;;25.63;14.18;;;;;;;5.25;59.83;99644.38;5136232;28;20047;-96
2021/12/13 10:06:17;;;;;;;28.23;14.63;;;;;;;5.17;60.88;99643.41;5137306;28;20039;-95
2021/12/13 10:08:50;;;;;;;39.90;21.88;;;;;;;5.27;60.91;99642.63;5137538;28;20039;-96
2021/12/13 10:11:20;;;;;;;62.80;37.08;;;;;;;5.31;60.40;99639.16;5136010;28;20043;-96
2021/12/13 10:13:47;;;;;;;62.22;41.85;;;;;;;5.31;59.33;99625.97;5136018;28;20435;-95
2021/12/13 10:16:19;;;;;;;70.13;49.00;;;;;;;5.43;60.21;99663.84;5135527;28;20039;-94
2021/12/13 10:18:47;;;;;;;112.07;69.28;;;;;;;5.29;60.71;99639.97;5134789;28;20020;-95
2021/12/13 10:21:16;;;;;;;137.82;86.70;;;;;;;5.56;60.14;99669.22;5135505;28;20133;-96
2021/12/13 10:23:46;;;;;;;55.05;40.25;;;;;;;5.46;59.18;99641.00;5134821;28;20158;-95
2021/12/13 10:26:14;;;;;;;36.08;19.17;;;;;;;5.61;58.79;99671.03;5135450;28;20496;-96
2021/12/13 10:28:53;;;;;;;51.65;29.55;;;;;;;5.72;58.97;99678.13;5137527;28;20044;-96
2021/12/13 10:31:32;;;;;;;44.67;25.35;;;;;;;5.66;59.60;99645.53;5136892;28;20047;-96
2021/12/13 10:34:09;;;;;;;53.70;36.75;;;;;;;5.51;60.07;99631.38;5137706;28;20130;-95
2021/12/13 10:36:42;;;;;;;41.75;19.88;;;;;;;5.69;59.71;99666.69;5138264;28;20036;-96
2021/12/13 10:39:12;;;;;;;40.42;19.00;;;;;;;5.43;59.79;99625.16;5133268;28;20044;-94
2021/12/13 10:41:43;;;;;;;35.10;18.40;;;;;;;5.30;60.20;99624.19;5119617;28;20130;-94
2021/12/13 10:44:15;;;;;;;36.15;19.63;;;;;;;5.39;60.78;99639.19;5120536;28;20047;-95
2021/12/13 10:46:46;;;;;;;44.10;23.50;;;;;;;5.43;61.45;99641.00;5121179;28;20374;-96
2021/12/13 10:49:15;;;;;;;32.50;19.85;;;;;;;5.39;61.32;99626.00;5121353;28;20079;-96
2021/12/13 10:51:45;;;;;;;39.15;21.92;;;;;;;5.35;61.45;99621.59;5121824;28;20126;-96
2021/12/13 10:54:17;;;;;;;33.58;19.65;;;;;;;5.39;61.92;99601.41;5122844;28;20485;-96
2021/12/13 10:56:46;;;;;;;35.10;18.10;;;;;;;5.52;61.59;99609.41;5120326;28;20489;-95
2021/12/13 10:59:16;;;;;;;35.87;18.43;;;;;;;5.67;60.12;99628.84;5122289;28;20042;-95
2021/12/13 11:01:49;;;;;;;35.50;19.45;;;;;;;5.60;61.65;99582.19;5121673;28;20061;-96
2021/12/13 11:04:20;;;;;;;36.38;19.63;;;;;;;5.91;60.47;99599.94;5119412;28;20501;-95
2021/12/13 11:06:48;;;;;;;37.70;18.30;;;;;;;6.12;60.24;99593.06;5121493;28;20051;-94
2021/12/13 11:09:20;;;;;;;39.13;19.55;;;;;;;6.38;58.95;99587.84;5122892;28;20039;-95
2021/12/13 11:11:52;;;;;;;35.75;19.70;;;;;;;6.72;58.13;99625.84;5120453;28;20489;-95
2021/12/13 11:14:22;;;;;;;43.47;20.63;;;;;;;6.71;57.84;99594.09;5118636;28;20071;-95
2021/12/13 11:16:54;;;;;;;39.00;18.88;;;;;;;6.95;57.73;99625.84;5120394;28;20130;-96
2021/12/13 11:19:27;;;;;;;39.33;18.98;;;;;;;6.92;57.55;99593.25;5122070;28;20040;-96
2021/12/13 11:22:04;;;;;;;39.10;18.80;;;;;;;7.40;55.91;99623.22;5120240;28;20074;-96
2021/12/13 11:24:34;;;;;;;36.88;19.95;;;;;;;7.45;55.92;99586.19;5121443;28;20044;-96
2021/12/13 11:27:04;;;;;;;43.15;21.80;;;;;;;7.46;56.13;99575.59;5120477;28;20485;-96
2021/12/13 11:29:32;;;;;;;38.03;21.92;;;;;;;7.59;56.50;99598.50;5118865;28;20044;-95
2021/12/13 11:32:37;;;;;;;42.60;20.58;;;;;;;7.73;56.93;99619.66;5120088;28;20071;-94
2021/12/13 11:35:54;;;;;;;40.78;21.77;;;;;;;7.50;57.32;99571.16;5119276;28;20039;-96
2021/12/13 11:38:40;;;;;;;41.65;23.63;;;;;;;7.44;57.27;99582.66;5118116;28;20043;-94
2021/12/13 11:41:38;;;;;;;41.95;23.02;;;;;;;7.59;57.77;99613.53;5117646;28;20043;-96
2021/12/13 11:44:20;;;;;;;48.33;25.98;;;;;;;7.44;58.36;99587.03;5056070;28;20056;-96
2021/12/13 11:47:34;;;;;;;55.05;26.35;;;;;;;7.59;58.60;99616.16;5056211;28;20052;-96
2021/12/13 11:50:55;;;;;;;105.97;55.13;;;;;;;7.61;59.06;99594.09;5057762;28;20472;-95
2021/12/13 11:53:59;;;;;;;65.70;37.67;;;;;;;7.76;59.53;99600.22;4995395;28;20057;-95
2021/12/13 11:56:53;;;;;;;66.45;36.35;;;;;;;7.88;59.22;99592.25;4997475;28;20050;-95
2021/12/13 11:59:34;;;;;;;73.07;39.55;;;;;;;7.73;60.19;99581.72;4919463;29;20040;-95
2021/12/13 12:02:08;;;;;;;69.13;39.72;;;;;;;7.61;60.16;99554.38;4918423;29;20044;-95
2021/12/13 12:05:13;;;;;;;53.22;29.23;;;;;;;7.78;60.78;99567.56;4921938;29;20048;-95
2021/12/13 12:08:25;;;;;;;54.72;28.05;;;;;;;7.97;59.38;99580.75;4918994;29;20052;-95
2021/12/13 12:11:22;;;;;;;54.97;30.92;;;;;;;7.88;59.30;99547.25;4920462;29;20056;-96
2021/12/13 12:14:04;;;;;;;50.30;28.85;;;;;;;7.81;59.54;99538.44;4903944;29;20040;-95
2021/12/13 12:16:36;;;;;;;57.22;31.45;;;;;;;7.86;59.97;99546.38;4918692;29;20056;-95
2021/12/13 12:19:04;;;;;;;51.95;28.02;;;;;;;7.87;59.43;99542.84;4918741;29;20048;-95
2021/12/13 12:21:52;;;;;;;53.63;27.17;;;;;;;8.08;59.48;99567.47;4972924;28;20039;-95